sensor_id;sensor_type;location;lat;lon;timestamp;P1;durP1;ratioP1;P2;durP2;ratioP2
28836;SDS011;50669;50.982;11.022;2022-12-07T00:01:08;10.70;;;5.68;;
28836;SDS011;50669;50.982;11.022;2022-12-07T00:03:39;12.23;;;6.57;;
28836;SDS011;50669;50.982;11.022;2022-12-07T00:06:06;11.45;;;5.70;;
28836;SDS011;50669;50.982;11.022;2022-12-07T00:08:36;10.32;;;5.88;;
28836;SDS011;50669;50.982;11.022;2022-12-07T00:13:31;9.52;;;5.15;;
28836;SDS011;50669;50.982;11.022;2022-12-07T00:16:04;13.27;;;7.80;;
28836;SDS011;50669;50.982;11.022;2022-12-07T00:18:32;9.52;;;5.22;;
28836;SDS011;50669;50.982;11.022;2022-12-07T00:20:59;13.13;;;5.53;;
28836;SDS011;50669;50.982;11.022;2022-12-07T00:23:26;10.48;;;5.13;;
28836;SDS011;50669;50.982;11.022;2022-12-07T00:25:51;10.02;;;5.00;;
28836;SDS011;50669;50.982;11.022;2022-12-07T00:28:19;8.55;;;4.47;;
28836;SDS011;50669;50.982;11.022;2022-12-07T00:30:45;9.15;;;4.70;;
28836;SDS011;50669;50.982;11.022;2022-12-07T00:33:10;8.73;;;4.97;;
28836;SDS011;50669;50.982;11.022;2022-12-07T00:35:36;8.60;;;4.85;;
28836;SDS011;50669;50.982;11.022;2022-12-07T00:38:04;10.27;;;4.63;;
28836;SDS011;50669;50.982;11.022;2022-12-07T00:40:29;8.80;;;4.40;;
28836;SDS011;50669;50.982;11.022;2022-12-07T00:42:58;8.73;;;4.55;;
28836;SDS011;50669;50.982;11.022;2022-12-07T00:45:24;7.90;;;4.28;;
28836;SDS011;50669;50.982;11.022;2022-12-07T00:47:51;8.48;;;4.25;;
28836;SDS011;50669;50.982;11.022;2022-12-07T00:50:17;9.07;;;4.57;;
28836;SDS011;50669;50.982;11.022;2022-12-07T00:52:45;10.18;;;5.10;;
28836;SDS011;50669;50.982;11.022;2022-12-07T00:55:11;8.90;;;4.60;;
28836;SDS011;50669;50.982;11.022;2022-12-07T00:57:39;7.03;;;4.38;;
28836;SDS011;50669;50.982;11.022;2022-12-07T01:00:04;10.32;;;4.20;;
28836;SDS011;50669;50.982;11.022;2022-12-07T01:02:31;10.77;;;4.57;;
28836;SDS011;50669;50.982;11.022;2022-12-07T01:04:56;10.20;;;5.22;;
28836;SDS011;50669;50.982;11.022;2022-12-07T01:07:24;10.48;;;5.43;;
28836;SDS011;50669;50.982;11.022;2022-12-07T01:09:50;9.75;;;4.80;;
28836;SDS011;50669;50.982;11.022;2022-12-07T01:12:15;8.82;;;4.22;;
28836;SDS011;50669;50.982;11.022;2022-12-07T01:14:42;9.13;;;5.13;;
28836;SDS011;50669;50.982;11.022;2022-12-07T01:17:10;11.55;;;5.18;;
28836;SDS011;50669;50.982;11.022;2022-12-07T01:19:38;7.70;;;4.90;;
28836;SDS011;50669;50.982;11.022;2022-12-07T01:22:08;7.78;;;4.75;;
28836;SDS011;50669;50.982;11.022;2022-12-07T01:24:34;9.30;;;4.65;;
28836;SDS011;50669;50.982;11.022;2022-12-07T01:27:00;8.80;;;4.43;;
28836;SDS011;50669;50.982;11.022;2022-12-07T01:29:25;7.25;;;4.35;;
28836;SDS011;50669;50.982;11.022;2022-12-07T01:31:51;8.15;;;4.93;;
28836;SDS011;50669;50.982;11.022;2022-12-07T01:34:17;10.75;;;4.90;;
28836;SDS011;50669;50.982;11.022;2022-12-07T01:36:44;5.78;;;3.38;;
28836;SDS011;50669;50.982;11.022;2022-12-07T01:39:10;6.72;;;3.92;;
28836;SDS011;50669;50.982;11.022;2022-12-07T01:41:37;6.82;;;4.32;;
28836;SDS011;50669;50.982;11.022;2022-12-07T01:46:59;10.30;;;5.13;;
28836;SDS011;50669;50.982;11.022;2022-12-07T01:54:43;8.95;;;5.13;;
28836;SDS011;50669;50.982;11.022;2022-12-07T01:57:13;9.20;;;5.07;;
28836;SDS011;50669;50.982;11.022;2022-12-07T01:59:44;9.55;;;5.47;;
28836;SDS011;50669;50.982;11.022;2022-12-07T02:02:16;11.05;;;5.65;;
28836;SDS011;50669;50.982;11.022;2022-12-07T02:04:45;9.93;;;5.45;;
28836;SDS011;50669;50.982;11.022;2022-12-07T02:07:11;11.15;;;6.43;;
28836;SDS011;50669;50.982;11.022;2022-12-07T02:09:37;9.43;;;5.85;;
28836;SDS011;50669;50.982;11.022;2022-12-07T02:12:03;12.45;;;6.50;;
28836;SDS011;50669;50.982;11.022;2022-12-07T02:14:29;10.25;;;5.75;;
28836;SDS011;50669;50.982;11.022;2022-12-07T02:19:50;10.45;;;6.22;;
28836;SDS011;50669;50.982;11.022;2022-12-07T02:25:51;10.25;;;6.20;;
28836;SDS011;50669;50.982;11.022;2022-12-07T02:29:02;11.23;;;5.97;;
28836;SDS011;50669;50.982;11.022;2022-12-07T02:31:34;11.70;;;6.07;;
28836;SDS011;50669;50.982;11.022;2022-12-07T02:34:07;10.68;;;6.38;;
28836;SDS011;50669;50.982;11.022;2022-12-07T02:36:40;8.90;;;5.65;;
28836;SDS011;50669;50.982;11.022;2022-12-07T02:39:20;11.35;;;6.30;;
28836;SDS011;50669;50.982;11.022;2022-12-07T02:41:55;10.48;;;6.28;;
28836;SDS011;50669;50.982;11.022;2022-12-07T02:44:26;12.98;;;6.75;;
28836;SDS011;50669;50.982;11.022;2022-12-07T02:46:54;10.77;;;6.65;;
28836;SDS011;50669;50.982;11.022;2022-12-07T02:51:52;12.95;;;6.68;;
28836;SDS011;50669;50.982;11.022;2022-12-07T02:54:21;13.93;;;7.45;;
28836;SDS011;50669;50.982;11.022;2022-12-07T02:56:51;15.75;;;7.78;;
28836;SDS011;50669;50.982;11.022;2022-12-07T03:18:50;13.98;;;7.20;;
28836;SDS011;50669;50.982;11.022;2022-12-07T03:21:33;13.35;;;7.18;;
28836;SDS011;50669;50.982;11.022;2022-12-07T03:24:04;12.57;;;6.80;;
28836;SDS011;50669;50.982;11.022;2022-12-07T03:26:42;11.02;;;6.90;;
28836;SDS011;50669;50.982;11.022;2022-12-07T03:32:04;12.52;;;6.80;;
28836;SDS011;50669;50.982;11.022;2022-12-07T03:37:29;11.35;;;6.68;;
28836;SDS011;50669;50.982;11.022;2022-12-07T03:42:52;12.13;;;6.65;;
28836;SDS011;50669;50.982;11.022;2022-12-07T03:45:20;10.18;;;6.45;;
28836;SDS011;50669;50.982;11.022;2022-12-07T03:47:59;11.82;;;7.10;;
28836;SDS011;50669;50.982;11.022;2022-12-07T03:50:35;11.60;;;6.70;;
28836;SDS011;50669;50.982;11.022;2022-12-07T03:53:29;10.52;;;6.50;;
28836;SDS011;50669;50.982;11.022;2022-12-07T03:56:04;12.98;;;7.13;;
28836;SDS011;50669;50.982;11.022;2022-12-07T03:58:33;11.98;;;6.85;;
28836;SDS011;50669;50.982;11.022;2022-12-07T04:01:02;13.50;;;7.30;;
28836;SDS011;50669;50.982;11.022;2022-12-07T04:03:33;11.85;;;6.68;;
28836;SDS011;50669;50.982;11.022;2022-12-07T04:06:00;13.23;;;7.32;;
28836;SDS011;50669;50.982;11.022;2022-12-07T04:08:26;12.30;;;7.00;;
28836;SDS011;50669;50.982;11.022;2022-12-07T04:10:52;13.07;;;8.00;;
28836;SDS011;50669;50.982;11.022;2022-12-07T04:13:18;13.52;;;8.10;;
28836;SDS011;50669;50.982;11.022;2022-12-07T04:15:44;12.07;;;7.47;;
28836;SDS011;50669;50.982;11.022;2022-12-07T04:18:12;13.30;;;7.47;;
28836;SDS011;50669;50.982;11.022;2022-12-07T04:20:40;14.93;;;8.15;;
28836;SDS011;50669;50.982;11.022;2022-12-07T04:23:06;16.27;;;8.07;;
28836;SDS011;50669;50.982;11.022;2022-12-07T04:25:31;14.32;;;7.97;;
28836;SDS011;50669;50.982;11.022;2022-12-07T04:27:57;14.88;;;8.57;;
28836;SDS011;50669;50.982;11.022;2022-12-07T04:30:23;13.48;;;8.27;;
28836;SDS011;50669;50.982;11.022;2022-12-07T04:32:48;15.05;;;8.80;;
28836;SDS011;50669;50.982;11.022;2022-12-07T04:35:14;13.05;;;7.93;;
28836;SDS011;50669;50.982;11.022;2022-12-07T04:37:40;17.05;;;9.55;;
28836;SDS011;50669;50.982;11.022;2022-12-07T04:40:07;16.83;;;9.82;;
28836;SDS011;50669;50.982;11.022;2022-12-07T04:42:37;17.33;;;9.38;;
28836;SDS011;50669;50.982;11.022;2022-12-07T04:45:03;16.95;;;9.40;;
28836;SDS011;50669;50.982;11.022;2022-12-07T04:47:31;17.73;;;9.63;;
28836;SDS011;50669;50.982;11.022;2022-12-07T04:50:00;18.27;;;10.23;;
28836;SDS011;50669;50.982;11.022;2022-12-07T04:52:30;19.50;;;10.23;;
28836;SDS011;50669;50.982;11.022;2022-12-07T04:54:56;17.83;;;10.80;;
28836;SDS011;50669;50.982;11.022;2022-12-07T04:57:23;22.63;;;11.95;;
28836;SDS011;50669;50.982;11.022;2022-12-07T04:59:49;18.83;;;10.77;;
28836;SDS011;50669;50.982;11.022;2022-12-07T05:02:15;20.85;;;10.68;;
28836;SDS011;50669;50.982;11.022;2022-12-07T05:04:40;22.58;;;12.43;;
28836;SDS011;50669;50.982;11.022;2022-12-07T05:07:06;21.92;;;11.30;;
28836;SDS011;50669;50.982;11.022;2022-12-07T05:09:34;21.92;;;11.98;;
28836;SDS011;50669;50.982;11.022;2022-12-07T05:11:59;20.83;;;11.73;;
28836;SDS011;50669;50.982;11.022;2022-12-07T05:14:25;21.92;;;11.25;;
28836;SDS011;50669;50.982;11.022;2022-12-07T05:16:51;23.42;;;11.77;;
28836;SDS011;50669;50.982;11.022;2022-12-07T05:19:18;19.48;;;10.95;;
28836;SDS011;50669;50.982;11.022;2022-12-07T05:21:47;18.92;;;10.90;;
28836;SDS011;50669;50.982;11.022;2022-12-07T05:24:13;18.25;;;10.77;;
28836;SDS011;50669;50.982;11.022;2022-12-07T05:26:42;21.38;;;11.25;;
28836;SDS011;50669;50.982;11.022;2022-12-07T05:29:10;18.58;;;10.43;;
28836;SDS011;50669;50.982;11.022;2022-12-07T05:31:37;20.42;;;10.85;;
28836;SDS011;50669;50.982;11.022;2022-12-07T05:34:03;18.10;;;11.13;;
28836;SDS011;50669;50.982;11.022;2022-12-07T05:36:28;22.90;;;10.95;;
28836;SDS011;50669;50.982;11.022;2022-12-07T05:38:56;18.85;;;10.95;;
28836;SDS011;50669;50.982;11.022;2022-12-07T05:41:25;18.38;;;10.85;;
28836;SDS011;50669;50.982;11.022;2022-12-07T05:44:09;17.63;;;10.55;;
28836;SDS011;50669;50.982;11.022;2022-12-07T05:46:34;21.08;;;11.82;;
28836;SDS011;50669;50.982;11.022;2022-12-07T05:49:00;19.33;;;11.45;;
28836;SDS011;50669;50.982;11.022;2022-12-07T05:51:28;20.23;;;11.38;;
28836;SDS011;50669;50.982;11.022;2022-12-07T05:53:56;16.90;;;11.15;;
28836;SDS011;50669;50.982;11.022;2022-12-07T05:56:25;19.83;;;10.93;;
28836;SDS011;50669;50.982;11.022;2022-12-07T05:58:53;20.85;;;11.45;;
28836;SDS011;50669;50.982;11.022;2022-12-07T06:01:40;21.27;;;11.45;;
28836;SDS011;50669;50.982;11.022;2022-12-07T06:04:05;23.63;;;11.23;;
28836;SDS011;50669;50.982;11.022;2022-12-07T06:06:31;21.02;;;11.13;;
28836;SDS011;50669;50.982;11.022;2022-12-07T06:08:59;20.48;;;11.02;;
28836;SDS011;50669;50.982;11.022;2022-12-07T06:11:25;23.05;;;12.35;;
28836;SDS011;50669;50.982;11.022;2022-12-07T06:14:09;18.67;;;11.40;;
28836;SDS011;50669;50.982;11.022;2022-12-07T06:16:35;19.63;;;11.68;;
28836;SDS011;50669;50.982;11.022;2022-12-07T06:19:00;20.30;;;12.35;;
28836;SDS011;50669;50.982;11.022;2022-12-07T06:21:26;20.50;;;11.50;;
28836;SDS011;50669;50.982;11.022;2022-12-07T06:23:52;24.02;;;11.88;;
28836;SDS011;50669;50.982;11.022;2022-12-07T06:26:18;24.10;;;12.70;;
28836;SDS011;50669;50.982;11.022;2022-12-07T06:28:44;20.00;;;11.25;;
28836;SDS011;50669;50.982;11.022;2022-12-07T06:31:10;21.30;;;11.90;;
28836;SDS011;50669;50.982;11.022;2022-12-07T06:33:35;22.70;;;12.77;;
28836;SDS011;50669;50.982;11.022;2022-12-07T06:36:01;19.42;;;11.45;;
28836;SDS011;50669;50.982;11.022;2022-12-07T06:38:29;23.60;;;12.45;;
28836;SDS011;50669;50.982;11.022;2022-12-07T06:40:57;19.00;;;11.10;;
28836;SDS011;50669;50.982;11.022;2022-12-07T06:43:22;20.48;;;10.93;;
28836;SDS011;50669;50.982;11.022;2022-12-07T06:45:50;22.02;;;11.07;;
28836;SDS011;50669;50.982;11.022;2022-12-07T06:48:19;22.98;;;11.55;;
28836;SDS011;50669;50.982;11.022;2022-12-07T06:50:45;21.80;;;11.32;;
28836;SDS011;50669;50.982;11.022;2022-12-07T06:53:11;21.10;;;11.50;;
28836;SDS011;50669;50.982;11.022;2022-12-07T06:55:39;20.27;;;11.32;;
28836;SDS011;50669;50.982;11.022;2022-12-07T06:58:07;21.65;;;11.75;;
28836;SDS011;50669;50.982;11.022;2022-12-07T07:00:33;19.60;;;10.88;;
28836;SDS011;50669;50.982;11.022;2022-12-07T07:03:01;23.55;;;10.95;;
28836;SDS011;50669;50.982;11.022;2022-12-07T07:05:26;20.88;;;11.73;;
28836;SDS011;50669;50.982;11.022;2022-12-07T07:07:52;22.55;;;12.90;;
28836;SDS011;50669;50.982;11.022;2022-12-07T07:10:20;22.85;;;12.70;;
28836;SDS011;50669;50.982;11.022;2022-12-07T07:12:48;21.48;;;12.07;;
28836;SDS011;50669;50.982;11.022;2022-12-07T07:15:14;20.95;;;12.18;;
28836;SDS011;50669;50.982;11.022;2022-12-07T07:17:42;21.48;;;11.85;;
28836;SDS011;50669;50.982;11.022;2022-12-07T07:20:08;25.85;;;13.48;;
28836;SDS011;50669;50.982;11.022;2022-12-07T07:22:34;23.73;;;12.93;;
28836;SDS011;50669;50.982;11.022;2022-12-07T07:25:00;21.83;;;11.77;;
28836;SDS011;50669;50.982;11.022;2022-12-07T07:27:30;23.33;;;11.95;;
28836;SDS011;50669;50.982;11.022;2022-12-07T07:29:56;22.58;;;12.52;;
28836;SDS011;50669;50.982;11.022;2022-12-07T07:32:24;21.48;;;11.93;;
28836;SDS011;50669;50.982;11.022;2022-12-07T07:34:52;21.45;;;11.00;;
28836;SDS011;50669;50.982;11.022;2022-12-07T07:37:23;23.98;;;11.10;;
28836;SDS011;50669;50.982;11.022;2022-12-07T07:39:48;20.73;;;11.18;;
28836;SDS011;50669;50.982;11.022;2022-12-07T07:42:16;22.38;;;11.82;;
28836;SDS011;50669;50.982;11.022;2022-12-07T07:44:42;21.67;;;11.65;;
28836;SDS011;50669;50.982;11.022;2022-12-07T07:47:10;19.45;;;10.55;;
28836;SDS011;50669;50.982;11.022;2022-12-07T07:49:36;21.95;;;10.80;;
28836;SDS011;50669;50.982;11.022;2022-12-07T07:52:02;18.33;;;10.43;;
28836;SDS011;50669;50.982;11.022;2022-12-07T07:54:27;19.77;;;11.43;;
28836;SDS011;50669;50.982;11.022;2022-12-07T07:56:56;20.95;;;11.15;;
28836;SDS011;50669;50.982;11.022;2022-12-07T07:59:24;23.95;;;11.15;;
28836;SDS011;50669;50.982;11.022;2022-12-07T08:01:50;24.65;;;12.43;;
28836;SDS011;50669;50.982;11.022;2022-12-07T08:04:16;17.15;;;10.15;;
28836;SDS011;50669;50.982;11.022;2022-12-07T08:06:44;24.52;;;11.77;;
28836;SDS011;50669;50.982;11.022;2022-12-07T08:09:12;26.67;;;11.35;;
28836;SDS011;50669;50.982;11.022;2022-12-07T08:11:37;20.30;;;11.57;;
28836;SDS011;50669;50.982;11.022;2022-12-07T08:14:03;19.25;;;10.73;;
28836;SDS011;50669;50.982;11.022;2022-12-07T08:16:29;20.45;;;11.10;;
28836;SDS011;50669;50.982;11.022;2022-12-07T08:18:59;20.38;;;10.25;;
28836;SDS011;50669;50.982;11.022;2022-12-07T08:21:25;21.80;;;10.38;;
28836;SDS011;50669;50.982;11.022;2022-12-07T08:23:50;18.52;;;10.38;;
28836;SDS011;50669;50.982;11.022;2022-12-07T08:26:16;18.85;;;10.40;;
28836;SDS011;50669;50.982;11.022;2022-12-07T08:28:42;22.27;;;12.13;;
28836;SDS011;50669;50.982;11.022;2022-12-07T08:31:09;19.33;;;10.60;;
28836;SDS011;50669;50.982;11.022;2022-12-07T08:33:38;18.00;;;9.75;;
28836;SDS011;50669;50.982;11.022;2022-12-07T08:36:05;17.67;;;9.60;;
28836;SDS011;50669;50.982;11.022;2022-12-07T08:38:34;18.25;;;9.40;;
28836;SDS011;50669;50.982;11.022;2022-12-07T08:41:02;18.80;;;10.23;;
28836;SDS011;50669;50.982;11.022;2022-12-07T08:43:33;16.98;;;8.35;;
28836;SDS011;50669;50.982;11.022;2022-12-07T08:48:30;13.20;;;8.05;;
28836;SDS011;50669;50.982;11.022;2022-12-07T08:50:57;13.65;;;7.70;;
28836;SDS011;50669;50.982;11.022;2022-12-07T08:53:26;12.43;;;6.95;;
28836;SDS011;50669;50.982;11.022;2022-12-07T08:55:56;13.50;;;7.80;;
28836;SDS011;50669;50.982;11.022;2022-12-07T08:58:22;15.05;;;7.75;;
28836;SDS011;50669;50.982;11.022;2022-12-07T09:00:51;13.25;;;7.53;;
28836;SDS011;50669;50.982;11.022;2022-12-07T09:03:17;11.48;;;6.72;;
28836;SDS011;50669;50.982;11.022;2022-12-07T09:05:45;14.63;;;7.03;;
28836;SDS011;50669;50.982;11.022;2022-12-07T09:08:13;11.57;;;6.45;;
28836;SDS011;50669;50.982;11.022;2022-12-07T09:10:39;13.93;;;6.55;;
28836;SDS011;50669;50.982;11.022;2022-12-07T09:13:05;9.55;;;5.68;;
28836;SDS011;50669;50.982;11.022;2022-12-07T09:15:30;11.70;;;6.05;;
28836;SDS011;50669;50.982;11.022;2022-12-07T09:17:58;11.57;;;5.45;;
28836;SDS011;50669;50.982;11.022;2022-12-07T09:20:26;11.60;;;5.43;;
28836;SDS011;50669;50.982;11.022;2022-12-07T09:22:52;12.43;;;6.15;;
28836;SDS011;50669;50.982;11.022;2022-12-07T09:25:20;10.27;;;5.53;;
28836;SDS011;50669;50.982;11.022;2022-12-07T09:27:46;12.73;;;5.45;;
28836;SDS011;50669;50.982;11.022;2022-12-07T09:30:19;11.45;;;4.82;;
28836;SDS011;50669;50.982;11.022;2022-12-07T09:32:45;9.10;;;5.57;;
28836;SDS011;50669;50.982;11.022;2022-12-07T09:35:11;10.43;;;4.95;;
28836;SDS011;50669;50.982;11.022;2022-12-07T09:37:38;12.45;;;5.53;;
28836;SDS011;50669;50.982;11.022;2022-12-07T09:40:04;11.02;;;5.45;;
28836;SDS011;50669;50.982;11.022;2022-12-07T09:44:59;12.45;;;5.88;;
28836;SDS011;50669;50.982;11.022;2022-12-07T09:47:28;12.27;;;5.13;;
28836;SDS011;50669;50.982;11.022;2022-12-07T09:49:55;13.50;;;5.90;;
28836;SDS011;50669;50.982;11.022;2022-12-07T09:52:29;8.40;;;5.38;;
28836;SDS011;50669;50.982;11.022;2022-12-07T09:54:58;11.23;;;4.85;;
28836;SDS011;50669;50.982;11.022;2022-12-07T09:57:30;9.25;;;5.18;;
28836;SDS011;50669;50.982;11.022;2022-12-07T10:00:20;12.73;;;4.78;;
28836;SDS011;50669;50.982;11.022;2022-12-07T10:05:36;18.95;;;5.18;;
28836;SDS011;50669;50.982;11.022;2022-12-07T10:08:13;7.55;;;4.82;;
28836;SDS011;50669;50.982;11.022;2022-12-07T10:10:42;10.52;;;4.65;;
28836;SDS011;50669;50.982;11.022;2022-12-07T10:13:15;7.97;;;4.57;;
28836;SDS011;50669;50.982;11.022;2022-12-07T10:15:58;8.70;;;4.22;;
28836;SDS011;50669;50.982;11.022;2022-12-07T10:23:39;13.85;;;4.22;;
28836;SDS011;50669;50.982;11.022;2022-12-07T10:28:58;6.97;;;3.75;;
28836;SDS011;50669;50.982;11.022;2022-12-07T10:31:26;10.32;;;4.13;;
28836;SDS011;50669;50.982;11.022;2022-12-07T10:39:00;6.88;;;3.85;;
28836;SDS011;50669;50.982;11.022;2022-12-07T10:41:31;9.15;;;4.03;;
28836;SDS011;50669;50.982;11.022;2022-12-07T10:43:57;6.88;;;3.60;;
28836;SDS011;50669;50.982;11.022;2022-12-07T10:59:50;11.25;;;3.70;;
28836;SDS011;50669;50.982;11.022;2022-12-07T11:02:29;5.35;;;3.03;;
28836;SDS011;50669;50.982;11.022;2022-12-07T11:10:35;4.35;;;2.30;;
28836;SDS011;50669;50.982;11.022;2022-12-07T11:18:59;6.75;;;1.98;;
28836;SDS011;50669;50.982;11.022;2022-12-07T11:30:06;7.30;;;2.45;;
28836;SDS011;50669;50.982;11.022;2022-12-07T11:32:45;7.03;;;2.65;;
28836;SDS011;50669;50.982;11.022;2022-12-07T11:37:59;3.47;;;2.13;;
28836;SDS011;50669;50.982;11.022;2022-12-07T11:40:34;7.50;;;2.42;;
28836;SDS011;50669;50.982;11.022;2022-12-07T11:43:04;6.82;;;2.55;;
28836;SDS011;50669;50.982;11.022;2022-12-07T11:46:14;9.52;;;2.35;;
28836;SDS011;50669;50.982;11.022;2022-12-07T11:48:46;8.10;;;2.50;;
28836;SDS011;50669;50.982;11.022;2022-12-07T11:51:22;6.75;;;2.22;;
28836;SDS011;50669;50.982;11.022;2022-12-07T11:53:58;4.50;;;1.75;;
28836;SDS011;50669;50.982;11.022;2022-12-07T11:56:28;4.32;;;2.00;;
28836;SDS011;50669;50.982;11.022;2022-12-07T12:01:55;5.68;;;1.90;;
28836;SDS011;50669;50.982;11.022;2022-12-07T12:07:01;6.07;;;2.08;;
28836;SDS011;50669;50.982;11.022;2022-12-07T12:09:32;4.60;;;2.40;;
28836;SDS011;50669;50.982;11.022;2022-12-07T12:15:08;3.85;;;1.83;;
28836;SDS011;50669;50.982;11.022;2022-12-07T12:17:50;6.00;;;2.15;;
28836;SDS011;50669;50.982;11.022;2022-12-07T12:20:26;3.72;;;2.10;;
28836;SDS011;50669;50.982;11.022;2022-12-07T12:28:18;5.88;;;2.58;;
28836;SDS011;50669;50.982;11.022;2022-12-07T12:33:48;5.63;;;2.10;;
28836;SDS011;50669;50.982;11.022;2022-12-07T12:38:51;3.35;;;1.90;;
28836;SDS011;50669;50.982;11.022;2022-12-07T12:54:58;3.65;;;1.30;;
28836;SDS011;50669;50.982;11.022;2022-12-07T12:57:28;13.63;;;2.97;;
28836;SDS011;50669;50.982;11.022;2022-12-07T12:59:56;11.75;;;3.53;;
28836;SDS011;50669;50.982;11.022;2022-12-07T13:37:04;7.15;;;2.50;;
28836;SDS011;50669;50.982;11.022;2022-12-07T13:39:50;3.58;;;1.08;;
28836;SDS011;50669;50.982;11.022;2022-12-07T13:44:56;3.85;;;1.65;;
28836;SDS011;50669;50.982;11.022;2022-12-07T13:50:28;3.67;;;1.50;;
28836;SDS011;50669;50.982;11.022;2022-12-07T13:52:56;6.03;;;2.00;;
28836;SDS011;50669;50.982;11.022;2022-12-07T13:55:28;3.35;;;1.50;;
28836;SDS011;50669;50.982;11.022;2022-12-07T13:57:55;2.15;;;1.30;;
28836;SDS011;50669;50.982;11.022;2022-12-07T14:00:25;2.85;;;0.98;;
28836;SDS011;50669;50.982;11.022;2022-12-07T14:11:56;6.55;;;2.05;;
28836;SDS011;50669;50.982;11.022;2022-12-07T14:14:23;8.18;;;2.17;;
28836;SDS011;50669;50.982;11.022;2022-12-07T14:17:16;5.87;;;2.13;;
28836;SDS011;50669;50.982;11.022;2022-12-07T14:22:32;4.72;;;2.00;;
28836;SDS011;50669;50.982;11.022;2022-12-07T14:25:14;5.53;;;2.10;;
28836;SDS011;50669;50.982;11.022;2022-12-07T14:27:47;4.53;;;2.03;;
28836;SDS011;50669;50.982;11.022;2022-12-07T14:30:16;15.50;;;8.07;;
28836;SDS011;50669;50.982;11.022;2022-12-07T14:32:45;4.30;;;2.10;;
28836;SDS011;50669;50.982;11.022;2022-12-07T14:35:18;5.95;;;2.72;;
28836;SDS011;50669;50.982;11.022;2022-12-07T14:37:46;5.75;;;2.63;;
28836;SDS011;50669;50.982;11.022;2022-12-07T14:40:20;7.20;;;2.70;;
28836;SDS011;50669;50.982;11.022;2022-12-07T14:42:48;5.55;;;2.63;;
28836;SDS011;50669;50.982;11.022;2022-12-07T14:45:19;4.68;;;2.50;;
28836;SDS011;50669;50.982;11.022;2022-12-07T14:47:47;4.07;;;2.08;;
28836;SDS011;50669;50.982;11.022;2022-12-07T14:50:17;3.40;;;2.13;;
28836;SDS011;50669;50.982;11.022;2022-12-07T14:52:45;5.15;;;2.60;;
28836;SDS011;50669;50.982;11.022;2022-12-07T14:55:24;5.30;;;2.35;;
28836;SDS011;50669;50.982;11.022;2022-12-07T14:57:50;6.20;;;2.08;;
28836;SDS011;50669;50.982;11.022;2022-12-07T15:00:19;7.10;;;3.85;;
28836;SDS011;50669;50.982;11.022;2022-12-07T15:02:47;4.05;;;1.90;;
28836;SDS011;50669;50.982;11.022;2022-12-07T15:05:16;3.92;;;2.10;;
28836;SDS011;50669;50.982;11.022;2022-12-07T15:07:43;8.52;;;3.50;;
28836;SDS011;50669;50.982;11.022;2022-12-07T15:10:15;8.98;;;2.75;;
28836;SDS011;50669;50.982;11.022;2022-12-07T15:12:41;4.97;;;2.85;;
28836;SDS011;50669;50.982;11.022;2022-12-07T15:15:07;6.72;;;3.10;;
28836;SDS011;50669;50.982;11.022;2022-12-07T15:17:33;7.75;;;2.78;;
28836;SDS011;50669;50.982;11.022;2022-12-07T15:19:58;9.73;;;3.10;;
28836;SDS011;50669;50.982;11.022;2022-12-07T15:22:24;8.27;;;3.42;;
28836;SDS011;50669;50.982;11.022;2022-12-07T15:24:50;4.05;;;2.83;;
28836;SDS011;50669;50.982;11.022;2022-12-07T15:27:18;15.25;;;3.70;;
28836;SDS011;50669;50.982;11.022;2022-12-07T15:29:43;11.68;;;3.28;;
28836;SDS011;50669;50.982;11.022;2022-12-07T15:32:09;8.45;;;3.17;;
28836;SDS011;50669;50.982;11.022;2022-12-07T15:34:37;8.15;;;3.80;;
28836;SDS011;50669;50.982;11.022;2022-12-07T15:37:03;8.98;;;3.40;;
28836;SDS011;50669;50.982;11.022;2022-12-07T15:39:31;10.43;;;4.32;;
28836;SDS011;50669;50.982;11.022;2022-12-07T15:41:59;3.90;;;2.78;;
28836;SDS011;50669;50.982;11.022;2022-12-07T15:44:25;3.75;;;2.05;;
28836;SDS011;50669;50.982;11.022;2022-12-07T15:47:11;28.75;;;11.98;;
28836;SDS011;50669;50.982;11.022;2022-12-07T15:49:42;6.97;;;2.63;;
28836;SDS011;50669;50.982;11.022;2022-12-07T15:52:07;8.13;;;2.20;;
28836;SDS011;50669;50.982;11.022;2022-12-07T15:54:33;5.40;;;2.47;;
28836;SDS011;50669;50.982;11.022;2022-12-07T15:56:59;4.38;;;1.58;;
28836;SDS011;50669;50.982;11.022;2022-12-07T15:59:29;10.25;;;3.20;;
28836;SDS011;50669;50.982;11.022;2022-12-07T16:01:55;3.75;;;2.35;;
28836;SDS011;50669;50.982;11.022;2022-12-07T16:04:21;5.30;;;2.20;;
28836;SDS011;50669;50.982;11.022;2022-12-07T16:06:51;5.78;;;2.83;;
28836;SDS011;50669;50.982;11.022;2022-12-07T16:09:17;4.50;;;2.13;;
28836;SDS011;50669;50.982;11.022;2022-12-07T16:11:46;6.93;;;2.78;;
28836;SDS011;50669;50.982;11.022;2022-12-07T16:14:12;11.52;;;3.63;;
28836;SDS011;50669;50.982;11.022;2022-12-07T16:16:39;5.15;;;2.92;;
28836;SDS011;50669;50.982;11.022;2022-12-07T16:19:06;8.02;;;2.72;;
28836;SDS011;50669;50.982;11.022;2022-12-07T16:21:35;5.25;;;2.90;;
28836;SDS011;50669;50.982;11.022;2022-12-07T16:24:02;8.38;;;3.20;;
28836;SDS011;50669;50.982;11.022;2022-12-07T16:26:28;10.57;;;3.97;;
28836;SDS011;50669;50.982;11.022;2022-12-07T16:28:54;16.48;;;5.43;;
28836;SDS011;50669;50.982;11.022;2022-12-07T16:31:21;10.10;;;4.18;;
28836;SDS011;50669;50.982;11.022;2022-12-07T16:33:48;10.10;;;4.05;;
28836;SDS011;50669;50.982;11.022;2022-12-07T16:36:15;14.65;;;4.53;;
28836;SDS011;50669;50.982;11.022;2022-12-07T16:38:41;10.05;;;3.50;;
28836;SDS011;50669;50.982;11.022;2022-12-07T16:41:10;10.32;;;3.95;;
28836;SDS011;50669;50.982;11.022;2022-12-07T16:43:36;11.00;;;3.90;;
28836;SDS011;50669;50.982;11.022;2022-12-07T16:46:02;17.75;;;6.30;;
28836;SDS011;50669;50.982;11.022;2022-12-07T16:48:29;15.13;;;5.00;;
28836;SDS011;50669;50.982;11.022;2022-12-07T16:50:57;6.95;;;4.32;;
28836;SDS011;50669;50.982;11.022;2022-12-07T16:53:27;10.13;;;4.05;;
28836;SDS011;50669;50.982;11.022;2022-12-07T16:55:53;12.65;;;5.10;;
28836;SDS011;50669;50.982;11.022;2022-12-07T16:58:18;8.93;;;3.33;;
28836;SDS011;50669;50.982;11.022;2022-12-07T17:00:44;9.48;;;3.80;;
28836;SDS011;50669;50.982;11.022;2022-12-07T17:03:11;7.18;;;3.58;;
28836;SDS011;50669;50.982;11.022;2022-12-07T17:05:37;7.93;;;3.53;;
28836;SDS011;50669;50.982;11.022;2022-12-07T17:08:05;7.03;;;3.78;;
28836;SDS011;50669;50.982;11.022;2022-12-07T17:10:31;8.82;;;4.50;;
28836;SDS011;50669;50.982;11.022;2022-12-07T17:12:58;9.63;;;4.13;;
28836;SDS011;50669;50.982;11.022;2022-12-07T17:15:24;9.18;;;3.95;;
28836;SDS011;50669;50.982;11.022;2022-12-07T17:17:57;7.30;;;4.05;;
28836;SDS011;50669;50.982;11.022;2022-12-07T17:20:24;6.93;;;3.28;;
28836;SDS011;50669;50.982;11.022;2022-12-07T17:22:51;8.55;;;3.95;;
28836;SDS011;50669;50.982;11.022;2022-12-07T17:25:17;8.00;;;4.10;;
28836;SDS011;50669;50.982;11.022;2022-12-07T17:27:46;7.45;;;4.15;;
28836;SDS011;50669;50.982;11.022;2022-12-07T17:30:12;9.13;;;5.07;;
28836;SDS011;50669;50.982;11.022;2022-12-07T17:32:41;15.35;;;5.90;;
28836;SDS011;50669;50.982;11.022;2022-12-07T17:35:07;8.10;;;4.15;;
28836;SDS011;50669;50.982;11.022;2022-12-07T17:37:38;8.57;;;3.75;;
28836;SDS011;50669;50.982;11.022;2022-12-07T17:40:06;8.73;;;4.00;;
28836;SDS011;50669;50.982;11.022;2022-12-07T17:42:32;10.55;;;4.43;;